createdAt,value
2018-11-06T00:00:56.335Z,43.60
2018-11-06T00:03:29.948Z,44.00
2018-11-06T00:05:58.066Z,43.90
2018-11-06T00:08:26.159Z,44.10
2018-11-06T00:10:54.281Z,44.40
2018-11-06T00:13:22.400Z,44.30
2018-11-06T00:15:50.489Z,44.10
2018-11-06T00:18:18.611Z,44.70
2018-11-06T00:20:46.723Z,45.20
2018-11-06T00:23:14.848Z,45.50
2018-11-06T00:25:42.952Z,46.30
2018-11-06T00:28:11.071Z,47.10
2018-11-06T00:30:39.176Z,47.40
2018-11-06T00:33:07.291Z,48.10
2018-11-06T00:35:35.403Z,48.90
2018-11-06T00:38:03.532Z,49.50
2018-11-06T00:40:31.728Z,49.50
2018-11-06T00:42:59.839Z,49.90
2018-11-06T00:45:27.984Z,50.50
2018-11-06T00:47:56.104Z,51.60
2018-11-06T00:50:24.192Z,51.30
2018-11-06T00:52:52.303Z,51.70
2018-11-06T00:55:20.429Z,51.70
2018-11-06T00:57:48.540Z,52.00
2018-11-06T01:00:23.533Z,52.50
2018-11-06T01:02:51.664Z,52.70
2018-11-06T01:05:19.794Z,53.30
2018-11-06T01:07:48.816Z,53.50
2018-11-06T01:10:17.096Z,54.10
2018-11-06T01:12:45.227Z,54.40
2018-11-06T01:15:14.663Z,54.30
2018-11-06T01:17:43.850Z,54.70
2018-11-06T01:20:13.885Z,54.50
2018-11-06T01:22:42.012Z,54.30
2018-11-06T01:25:10.731Z,54.40
2018-11-06T01:27:39.122Z,54.80
2018-11-06T01:30:12.219Z,54.90
2018-11-06T01:32:40.382Z,55.10
2018-11-06T01:35:09.585Z,55.10
2018-11-06T01:37:37.719Z,55.20
2018-11-06T01:40:07.297Z,55.10
2018-11-06T01:42:35.411Z,55.20
2018-11-06T01:45:03.675Z,55.30
2018-11-06T01:47:31.767Z,55.50
2018-11-06T01:49:59.883Z,55.90
2018-11-06T01:52:28.040Z,55.90
2018-11-06T01:54:56.160Z,56.00
2018-11-06T01:57:24.279Z,56.00
2018-11-06T01:59:52.391Z,56.20
2018-11-06T02:02:20.519Z,56.20
2018-11-06T02:04:48.625Z,56.50
2018-11-06T02:07:16.735Z,57.10
2018-11-06T02:09:44.855Z,57.30
2018-11-06T02:12:12.988Z,57.40
2018-11-06T02:14:41.068Z,58.20
2018-11-06T02:17:09.243Z,57.70
2018-11-06T02:19:37.354Z,57.70
2018-11-06T02:22:05.473Z,57.60
2018-11-06T02:24:33.568Z,57.90
2018-11-06T02:27:01.667Z,57.70
2018-11-06T02:29:29.796Z,57.80
2018-11-06T02:31:57.912Z,57.90
2018-11-06T02:34:26.036Z,58.00
2018-11-06T02:36:54.151Z,58.50
2018-11-06T02:39:22.344Z,58.70
2018-11-06T02:41:50.455Z,58.30
2018-11-06T02:44:18.575Z,58.70
2018-11-06T02:46:46.692Z,58.60
2018-11-06T02:49:14.783Z,58.70
2018-11-06T02:51:42.909Z,58.80
2018-11-06T02:54:11.016Z,59.00
2018-11-06T02:56:39.147Z,59.10
2018-11-06T02:59:07.388Z,59.20
2018-11-06T03:01:35.535Z,59.40
2018-11-06T03:04:03.655Z,59.50
2018-11-06T03:06:31.764Z,59.50
2018-11-06T03:08:59.883Z,59.20
2018-11-06T03:11:28.020Z,58.80
2018-11-06T03:13:56.142Z,59.40
2018-11-06T03:16:24.284Z,59.10
2018-11-06T03:18:52.449Z,59.60
2018-11-06T03:21:20.603Z,59.60
2018-11-06T03:23:48.718Z,59.70
2018-11-06T03:26:16.820Z,60.30
2018-11-06T03:28:44.992Z,59.80
2018-11-06T03:31:13.099Z,60.20
2018-11-06T03:33:41.199Z,60.20
2018-11-06T03:36:09.359Z,60.80
2018-11-06T03:38:37.483Z,60.50
2018-11-06T03:41:05.664Z,60.50
2018-11-06T03:43:33.787Z,60.70
2018-11-06T03:46:01.968Z,60.60
2018-11-06T03:48:30.079Z,60.70
2018-11-06T03:50:58.202Z,60.70
2018-11-06T03:53:26.328Z,60.80
2018-11-06T03:55:54.460Z,60.70
2018-11-06T03:58:22.652Z,60.90
2018-11-06T04:00:50.813Z,61.70
2018-11-06T04:03:18.968Z,61.60
2018-11-06T04:05:47.113Z,61.70
2018-11-06T04:08:15.269Z,61.90
2018-11-06T04:10:43.411Z,61.70
2018-11-06T04:13:11.513Z,62.00
2018-11-06T04:15:39.715Z,62.00
2018-11-06T04:18:07.832Z,61.90
2018-11-06T04:20:35.960Z,62.10
2018-11-06T04:23:04.076Z,62.20
2018-11-06T04:25:32.208Z,62.20
2018-11-06T04:28:00.323Z,62.20
2018-11-06T04:30:28.424Z,62.40
2018-11-06T04:32:56.555Z,62.60
2018-11-06T04:35:24.647Z,63.00
2018-11-06T04:37:52.803Z,63.20
2018-11-06T04:40:20.905Z,62.40
2018-11-06T04:42:49.020Z,62.20
2018-11-06T04:45:17.136Z,62.20
2018-11-06T04:47:45.238Z,62.80
2018-11-06T04:50:14.000Z,63.40
2018-11-06T04:52:42.333Z,63.60
2018-11-06T04:55:11.512Z,63.30
2018-11-06T04:57:39.620Z,63.50
2018-11-06T05:00:10.504Z,63.50
2018-11-06T05:02:39.013Z,63.60
2018-11-06T05:05:07.775Z,63.90
2018-11-06T05:07:42.152Z,63.90
2018-11-06T05:10:11.873Z,64.00
2018-11-06T05:12:40.040Z,64.10
2018-11-06T05:15:10.818Z,64.20
2018-11-06T05:17:38.958Z,64.70
2018-11-06T05:20:11.573Z,64.30
2018-11-06T05:22:39.691Z,64.10
2018-11-06T05:25:08.245Z,64.20
2018-11-06T05:27:36.629Z,64.10
2018-11-06T05:30:05.352Z,64.50
2018-11-06T05:32:33.473Z,64.50
2018-11-06T05:35:01.733Z,64.80
2018-11-06T05:37:29.728Z,64.80
2018-11-06T05:40:09.375Z,65.10
2018-11-06T05:42:37.476Z,65.00
2018-11-06T05:45:05.771Z,65.10
2018-11-06T05:47:33.908Z,65.60
2018-11-06T05:50:02.060Z,66.00
2018-11-06T05:52:30.171Z,66.10
2018-11-06T05:54:58.283Z,65.70
2018-11-06T05:57:26.392Z,65.50
2018-11-06T05:59:54.540Z,65.90
2018-11-06T06:02:22.664Z,66.30
2018-11-06T06:04:50.760Z,66.60
2018-11-06T06:07:19.036Z,66.40
2018-11-06T06:09:47.168Z,65.90
2018-11-06T06:12:15.287Z,64.50
2018-11-06T06:14:43.418Z,65.70
2018-11-06T06:17:11.571Z,65.50
2018-11-06T06:19:39.637Z,65.60
2018-11-06T06:22:07.739Z,65.50
2018-11-06T06:24:35.861Z,65.40
2018-11-06T06:27:04.124Z,65.10
2018-11-06T06:29:32.255Z,65.00
2018-11-06T06:32:00.344Z,64.80
2018-11-06T06:34:28.532Z,65.00
2018-11-06T06:36:56.800Z,64.70
2018-11-06T06:39:24.920Z,64.90
2018-11-06T06:41:53.024Z,64.90
2018-11-06T06:44:21.236Z,64.10
2018-11-06T06:46:49.429Z,63.50
2018-11-06T06:49:17.543Z,63.40
2018-11-06T06:51:45.675Z,63.30
2018-11-06T06:54:14.256Z,63.20
2018-11-06T06:56:42.192Z,63.50
2018-11-06T06:59:10.279Z,63.30
2018-11-06T07:01:38.400Z,63.00
2018-11-06T07:04:06.506Z,62.20
2018-11-06T07:06:34.596Z,62.20
2018-11-06T07:09:02.732Z,62.10
2018-11-06T07:11:31.052Z,61.60
2018-11-06T07:13:59.153Z,61.40
2018-11-06T07:16:27.259Z,61.00
2018-11-06T07:18:55.642Z,60.70
2018-11-06T07:21:23.900Z,60.20
2018-11-06T07:23:52.060Z,60.20
2018-11-06T07:26:20.175Z,59.50
2018-11-06T07:28:48.334Z,59.50
2018-11-06T07:31:17.037Z,59.10
2018-11-06T07:33:45.210Z,58.80
2018-11-06T07:36:13.389Z,57.70
2018-11-06T07:38:41.498Z,57.80
2018-11-06T07:41:09.774Z,57.40
2018-11-06T07:43:37.863Z,57.70
2018-11-06T07:46:05.967Z,56.20
2018-11-06T07:48:34.118Z,55.50
2018-11-06T07:51:02.232Z,54.90
2018-11-06T07:53:30.346Z,54.30
2018-11-06T07:55:58.501Z,54.00
2018-11-06T07:58:26.552Z,53.30
2018-11-06T08:00:54.683Z,52.90
2018-11-06T08:03:22.788Z,51.70
2018-11-06T08:05:50.883Z,50.20
2018-11-06T08:08:19.037Z,47.10
2018-11-06T08:10:47.258Z,42.70
2018-11-06T08:13:15.391Z,38.10
2018-11-06T08:15:43.496Z,34.40
2018-11-06T08:18:11.596Z,31.40
2018-11-06T08:20:39.744Z,29.60
2018-11-06T08:23:07.778Z,28.20
2018-11-06T08:25:35.863Z,25.20
2018-11-06T08:28:03.927Z,24.20
2018-11-06T08:30:32.080Z,21.60
2018-11-06T08:33:00.112Z,23.40
2018-11-06T08:35:28.186Z,23.60
2018-11-06T08:37:56.280Z,25.90
2018-11-06T08:40:24.382Z,25.80
2018-11-06T08:42:52.472Z,25.30
2018-11-06T08:45:20.561Z,24.40
2018-11-06T08:47:48.634Z,24.00
2018-11-06T08:50:18.080Z,24.20
2018-11-06T08:52:46.279Z,23.00
2018-11-06T08:55:15.148Z,22.50
2018-11-06T08:57:43.939Z,23.70
2018-11-06T09:00:14.176Z,23.60
2018-11-06T09:02:43.006Z,22.50
2018-11-06T09:05:12.574Z,21.30
2018-11-06T09:07:40.652Z,21.20
2018-11-06T09:10:10.034Z,20.80
2018-11-06T09:12:38.924Z,20.80
2018-11-06T09:15:08.449Z,20.90
2018-11-06T09:17:36.801Z,20.80
2018-11-06T09:20:05.295Z,19.60
2018-11-06T09:22:33.388Z,18.80
2018-11-06T09:25:01.487Z,18.60
2018-11-06T09:27:29.562Z,18.10
2018-11-06T09:29:57.651Z,16.00
2018-11-06T09:32:25.753Z,15.30
2018-11-06T09:34:53.868Z,15.40
2018-11-06T09:37:21.954Z,15.20
2018-11-06T09:39:50.034Z,15.00
2018-11-06T09:42:18.136Z,15.10
2018-11-06T09:44:46.240Z,14.80
2018-11-06T09:47:14.329Z,15.20
2018-11-06T09:49:42.410Z,13.70
2018-11-06T09:52:10.620Z,13.90
2018-11-06T09:54:38.643Z,13.00
2018-11-06T09:57:06.820Z,12.60
2018-11-06T09:59:34.900Z,12.10
2018-11-06T10:02:02.992Z,11.00
2018-11-06T10:04:31.262Z,9.30
2018-11-06T10:06:59.710Z,8.80
2018-11-06T10:09:27.588Z,9.70
2018-11-06T10:11:55.840Z,9.90
2018-11-06T10:14:24.015Z,9.30
2018-11-06T10:16:52.210Z,9.90
2018-11-06T10:19:20.340Z,10.70
2018-11-06T10:21:48.562Z,11.30
2018-11-06T10:24:16.687Z,12.20
2018-11-06T10:26:45.237Z,12.70
2018-11-06T10:29:13.339Z,12.70
2018-11-06T10:31:41.483Z,12.20
2018-11-06T10:34:09.607Z,12.10
2018-11-06T10:36:37.707Z,12.70
2018-11-06T10:39:09.487Z,14.10
2018-11-06T10:41:37.611Z,15.60
2018-11-06T10:44:06.240Z,15.40
2018-11-06T10:46:34.528Z,14.80
2018-11-06T10:49:02.672Z,14.00
2018-11-06T10:51:30.935Z,13.50
2018-11-06T10:53:59.168Z,14.70
2018-11-06T10:56:27.266Z,14.50
2018-11-06T10:58:55.364Z,15.40
2018-11-06T11:01:28.989Z,14.70
2018-11-06T11:04:02.615Z,15.50
2018-11-06T11:06:30.761Z,16.20
2018-11-06T11:08:59.037Z,16.50
2018-11-06T11:11:27.157Z,15.60
2018-11-06T11:13:55.331Z,16.00
2018-11-06T11:16:23.564Z,16.70
2018-11-06T11:18:51.755Z,17.00
2018-11-06T11:21:19.879Z,17.20
2018-11-06T11:23:47.961Z,15.70
2018-11-06T11:26:16.157Z,15.70
2018-11-06T11:28:44.248Z,14.20
2018-11-06T11:31:12.325Z,12.80
2018-11-06T11:33:40.411Z,12.70
2018-11-06T11:36:08.505Z,13.60
2018-11-06T11:38:36.589Z,14.50
2018-11-06T11:41:04.656Z,14.80
2018-11-06T11:43:32.762Z,16.00
2018-11-06T11:46:00.881Z,15.40
2018-11-06T11:48:28.972Z,15.20
2018-11-06T11:50:57.045Z,15.90
2018-11-06T11:53:25.131Z,14.90
2018-11-06T11:55:53.204Z,15.00
2018-11-06T11:58:21.275Z,14.60
2018-11-06T12:00:49.344Z,14.90
2018-11-06T12:03:17.444Z,15.30
2018-11-06T12:05:45.612Z,16.20
2018-11-06T12:08:13.692Z,16.10
2018-11-06T12:10:41.780Z,15.90
2018-11-06T12:13:09.872Z,15.40
2018-11-06T12:15:38.523Z,16.00
2018-11-06T12:18:06.655Z,16.80
2018-11-06T12:20:34.719Z,16.30
2018-11-06T12:23:02.810Z,16.00
2018-11-06T12:25:37.932Z,15.50
2018-11-06T12:28:06.000Z,15.20
2018-11-06T12:30:34.126Z,16.10
2018-11-06T12:33:02.196Z,16.30
2018-11-06T12:35:30.280Z,16.20
2018-11-06T12:37:58.393Z,16.40
2018-11-06T12:40:26.476Z,15.10
2018-11-06T12:42:54.605Z,14.90
2018-11-06T12:45:22.744Z,13.80
2018-11-06T12:47:50.905Z,13.60
2018-11-06T12:50:18.989Z,14.20
2018-11-06T12:52:47.071Z,13.50
2018-11-06T12:55:16.020Z,13.30
2018-11-06T12:57:44.407Z,12.50
2018-11-06T13:00:16.469Z,12.30
2018-11-06T13:02:44.572Z,11.90
2018-11-06T13:05:12.644Z,11.50
2018-11-06T13:07:41.599Z,10.80
2018-11-06T13:10:10.519Z,10.70
2018-11-06T13:12:39.083Z,10.00
2018-11-06T13:15:07.567Z,10.10
2018-11-06T13:17:36.240Z,9.80
2018-11-06T13:20:05.856Z,9.80
2018-11-06T13:22:33.944Z,9.40
2018-11-06T13:25:02.039Z,8.70
2018-11-06T13:27:30.180Z,8.70
2018-11-06T13:29:58.277Z,9.00
2018-11-06T13:32:26.454Z,9.10
2018-11-06T13:34:54.568Z,9.70
2018-11-06T13:37:22.660Z,10.70
2018-11-06T13:39:50.740Z,11.60
2018-11-06T13:42:18.889Z,12.80
2018-11-06T13:44:47.270Z,14.20
2018-11-06T13:47:15.057Z,14.40
2018-11-06T13:49:43.128Z,13.60
2018-11-06T13:52:11.319Z,13.20
2018-11-06T13:54:39.367Z,12.80
2018-11-06T13:57:07.655Z,12.00
2018-11-06T13:59:35.737Z,12.30
2018-11-06T14:02:03.835Z,13.10
2018-11-06T14:04:31.924Z,13.90
2018-11-06T14:09:34.451Z,16.50
2018-11-06T14:12:02.532Z,17.10
2018-11-06T14:14:30.609Z,17.50
2018-11-06T14:16:58.695Z,18.10
2018-11-06T14:19:26.792Z,18.90
2018-11-06T14:21:54.923Z,19.00
2018-11-06T14:24:23.035Z,20.00
2018-11-06T14:26:51.197Z,20.60
2018-11-06T14:29:19.319Z,20.90
2018-11-06T14:31:47.447Z,21.80
2018-11-06T14:34:15.562Z,22.30
2018-11-06T14:36:43.691Z,22.70
2018-11-06T14:39:11.787Z,23.10
2018-11-06T14:41:39.903Z,23.50
2018-11-06T14:44:08.043Z,23.80
2018-11-06T14:46:36.157Z,24.50
2018-11-06T14:49:04.516Z,24.70
2018-11-06T14:51:32.543Z,25.10
2018-11-06T14:54:00.664Z,25.20
2018-11-06T14:56:28.760Z,25.50
2018-11-06T14:58:56.884Z,25.70
2018-11-06T15:01:24.979Z,25.90
2018-11-06T15:03:53.080Z,26.40
2018-11-06T15:06:21.180Z,26.70
2018-11-06T15:08:49.300Z,27.00
2018-11-06T15:11:17.432Z,27.20
2018-11-06T15:13:45.547Z,28.20
2018-11-06T15:16:13.672Z,28.50
2018-11-06T15:18:41.779Z,28.90
2018-11-06T15:21:16.328Z,29.50
2018-11-06T15:23:44.602Z,30.10
2018-11-06T15:26:12.711Z,30.40
2018-11-06T15:28:40.844Z,30.60
2018-11-06T15:31:08.958Z,31.00
2018-11-06T15:33:37.089Z,31.30
2018-11-06T15:36:05.445Z,31.60
2018-11-06T15:38:33.868Z,31.70
2018-11-06T15:41:02.092Z,31.90
2018-11-06T15:43:30.147Z,32.60
2018-11-06T15:45:58.272Z,33.60
2018-11-06T15:48:26.451Z,33.50
2018-11-06T15:50:54.527Z,34.10
2018-11-06T15:53:22.733Z,34.70
2018-11-06T15:55:50.839Z,35.00
2018-11-06T15:58:20.508Z,35.70
2018-11-06T16:00:48.717Z,36.10
2018-11-06T16:03:16.850Z,36.70
2018-11-06T16:05:45.022Z,37.40
2018-11-06T16:08:13.249Z,38.10
2018-11-06T16:10:41.324Z,38.70
2018-11-06T16:13:09.516Z,39.10
2018-11-06T16:15:37.744Z,39.80
2018-11-06T16:18:06.065Z,40.10
2018-11-06T16:20:34.189Z,40.70
2018-11-06T16:23:02.337Z,41.20
2018-11-06T16:25:30.499Z,41.90
2018-11-06T16:27:58.689Z,42.60
2018-11-06T16:30:26.824Z,43.40
2018-11-06T16:32:54.968Z,44.30
2018-11-06T16:35:23.652Z,44.70
2018-11-06T16:37:52.672Z,45.00
2018-11-06T16:40:20.844Z,45.80
2018-11-06T16:42:49.383Z,46.40
2018-11-06T16:45:19.182Z,47.20
2018-11-06T16:47:48.325Z,47.80
2018-11-06T16:50:17.479Z,48.90
2018-11-06T16:52:45.670Z,49.40
2018-11-06T16:55:14.273Z,49.40
2018-11-06T16:57:43.386Z,50.10
2018-11-06T17:00:24.515Z,50.50
2018-11-06T17:02:52.661Z,50.70
2018-11-06T17:05:20.864Z,51.50
2018-11-06T17:07:49.878Z,52.00
2018-11-06T17:10:19.421Z,54.30
2018-11-06T17:12:48.143Z,54.40
2018-11-06T17:15:18.058Z,53.40
2018-11-06T17:17:47.122Z,53.30
2018-11-06T17:20:15.668Z,54.00
2018-11-06T17:22:45.616Z,54.50
2018-11-06T17:25:15.912Z,54.00
2018-11-06T17:27:44.080Z,54.30
2018-11-06T17:30:13.993Z,56.10
2018-11-06T17:32:42.646Z,55.60
2018-11-06T17:35:12.495Z,55.00
2018-11-06T17:37:42.261Z,54.30
2018-11-06T17:40:12.632Z,54.00
2018-11-06T17:42:42.676Z,54.70
2018-11-06T17:45:13.165Z,54.30
2018-11-06T17:47:41.965Z,55.70
2018-11-06T17:50:23.337Z,54.50
2018-11-06T17:52:51.498Z,55.30
2018-11-06T17:55:20.764Z,54.60
2018-11-06T17:57:48.743Z,55.90
2018-11-06T18:00:19.892Z,56.10
2018-11-06T18:02:48.191Z,56.60
2018-11-06T18:05:17.321Z,55.10
2018-11-06T18:07:45.556Z,54.20
2018-11-06T18:10:18.067Z,54.10
2018-11-06T18:12:46.309Z,55.00
2018-11-06T18:15:14.580Z,54.90
2018-11-06T18:17:43.083Z,57.00
2018-11-06T18:20:12.064Z,55.30
2018-11-06T18:22:40.997Z,55.40
2018-11-06T18:25:09.924Z,54.70
2018-11-06T18:27:38.077Z,55.30
2018-11-06T18:30:08.940Z,56.00
2018-11-06T18:32:37.166Z,56.60
2018-11-06T18:35:06.608Z,55.20
2018-11-06T18:37:34.784Z,55.30
2018-11-06T18:40:02.952Z,54.90
2018-11-06T18:42:31.117Z,55.00
2018-11-06T18:44:59.228Z,55.50
2018-11-06T18:47:27.432Z,55.00
2018-11-06T18:49:55.480Z,56.30
2018-11-06T18:52:23.609Z,55.70
2018-11-06T18:54:51.736Z,56.00
2018-11-06T18:57:19.895Z,56.20
2018-11-06T18:59:48.007Z,55.90
2018-11-06T19:02:16.215Z,55.70
2018-11-06T19:04:44.355Z,55.00
2018-11-06T19:07:12.460Z,54.30
2018-11-06T19:09:40.689Z,54.90
2018-11-06T19:12:08.792Z,54.10
2018-11-06T19:14:36.928Z,55.00
2018-11-06T19:17:11.843Z,54.40
2018-11-06T19:19:40.005Z,55.00
2018-11-06T19:22:08.118Z,56.70
2018-11-06T19:24:36.243Z,55.10
2018-11-06T19:27:04.379Z,55.60
2018-11-06T19:29:32.500Z,55.50
2018-11-06T19:32:00.656Z,54.80
2018-11-06T19:34:28.751Z,54.40
2018-11-06T19:36:56.869Z,55.00
2018-11-06T19:39:25.005Z,55.00
2018-11-06T19:41:53.164Z,54.80
2018-11-06T19:44:21.378Z,54.10
2018-11-06T19:46:49.588Z,55.80
2018-11-06T19:49:17.730Z,54.70
2018-11-06T19:51:45.848Z,54.70
2018-11-06T19:54:14.066Z,54.40
2018-11-06T19:56:42.140Z,55.00
2018-11-06T19:59:10.236Z,54.60
2018-11-06T20:01:38.361Z,54.30
2018-11-06T20:04:06.688Z,54.00
2018-11-06T20:06:34.779Z,54.00
2018-11-06T20:09:03.079Z,55.20
2018-11-06T20:11:31.204Z,54.80
2018-11-06T20:13:59.318Z,53.50
2018-11-06T20:16:27.475Z,54.30
2018-11-06T20:18:55.647Z,52.70
2018-11-06T20:21:23.780Z,51.20
2018-11-06T20:23:51.867Z,50.30
2018-11-06T20:26:20.007Z,51.10
2018-11-06T20:28:48.128Z,50.70
2018-11-06T20:31:16.270Z,50.10
2018-11-06T20:33:44.543Z,49.70
2018-11-06T20:36:12.675Z,49.90
2018-11-06T20:38:40.793Z,48.90
2018-11-06T20:41:08.897Z,49.40
2018-11-06T20:43:37.004Z,47.90
2018-11-06T20:46:05.519Z,48.40
2018-11-06T20:48:33.636Z,48.20
2018-11-06T20:51:01.768Z,48.30
2018-11-06T20:53:30.115Z,48.30
2018-11-06T20:55:58.164Z,48.70
2018-11-06T20:58:26.255Z,48.30
2018-11-06T21:00:54.380Z,48.30
2018-11-06T21:03:22.568Z,48.70
2018-11-06T21:05:50.698Z,48.60
2018-11-06T21:08:18.787Z,48.30
2018-11-06T21:10:46.919Z,48.80
2018-11-06T21:13:15.012Z,48.30
2018-11-06T21:15:43.097Z,48.30
2018-11-06T21:18:11.229Z,48.40
2018-11-06T21:20:39.316Z,49.10
2018-11-06T21:23:07.423Z,48.20
2018-11-06T21:25:35.640Z,49.60
2018-11-06T21:28:03.644Z,48.30
2018-11-06T21:30:31.760Z,48.20
2018-11-06T21:32:59.860Z,48.50
2018-11-06T21:35:28.047Z,48.10
2018-11-06T21:37:56.148Z,47.20
2018-11-06T21:40:24.247Z,47.50
2018-11-06T21:42:52.364Z,47.00
2018-11-06T21:45:20.513Z,46.90
2018-11-06T21:47:49.384Z,47.60
2018-11-06T21:50:17.909Z,46.50
2018-11-06T21:52:46.091Z,46.60
2018-11-06T21:55:15.284Z,46.30
2018-11-06T21:57:43.392Z,45.90
2018-11-06T22:00:13.914Z,46.00
2018-11-06T22:02:41.988Z,46.00
2018-11-06T22:05:12.363Z,45.90
2018-11-06T22:07:40.939Z,46.00
2018-11-06T22:10:10.897Z,45.90
2018-11-06T22:12:39.410Z,45.50
2018-11-06T22:15:08.537Z,45.20
2018-11-06T22:17:37.033Z,45.60
2018-11-06T22:20:06.388Z,45.80
2018-11-06T22:22:34.532Z,45.40
2018-11-06T22:25:02.864Z,45.90
2018-11-06T22:27:31.084Z,45.60
2018-11-06T22:29:59.185Z,45.50
2018-11-06T22:32:28.024Z,46.90
2018-11-06T22:34:56.404Z,45.30
2018-11-06T22:37:31.174Z,45.60
2018-11-06T22:39:59.218Z,44.90
2018-11-06T22:42:27.397Z,44.80
2018-11-06T22:44:55.503Z,45.30
2018-11-06T22:47:23.612Z,44.80
2018-11-06T22:50:04.902Z,44.60
2018-11-06T22:52:33.052Z,43.90
2018-11-06T22:55:01.244Z,44.10
2018-11-06T22:57:29.440Z,44.30
2018-11-06T22:59:57.623Z,44.50
2018-11-06T23:02:25.871Z,45.10
2018-11-06T23:04:54.018Z,45.20
2018-11-06T23:07:27.732Z,44.40
2018-11-06T23:09:55.876Z,44.20
2018-11-06T23:12:24.043Z,45.20
2018-11-06T23:14:52.180Z,44.70
2018-11-06T23:17:20.351Z,44.90
2018-11-06T23:19:48.520Z,44.70
2018-11-06T23:22:16.681Z,44.40
2018-11-06T23:24:44.848Z,44.80
2018-11-06T23:27:12.960Z,44.50
2018-11-06T23:29:41.117Z,44.60
2018-11-06T23:32:09.256Z,44.80
2018-11-06T23:34:37.402Z,44.70
2018-11-06T23:37:05.542Z,44.20
2018-11-06T23:39:33.701Z,44.40
2018-11-06T23:42:01.871Z,44.10
2018-11-06T23:44:30.013Z,44.00
2018-11-06T23:46:58.181Z,43.80
2018-11-06T23:49:26.716Z,43.50
2018-11-06T23:51:54.897Z,43.50
2018-11-06T23:54:23.064Z,43.30
2018-11-06T23:56:51.225Z,43.60
2018-11-06T23:59:19.395Z,43.60
